createdAt,value
2018-08-04T00:01:06.501Z,100204.50
2018-08-04T00:03:39.164Z,100210.73
2018-08-04T00:06:13.019Z,100210.70
2018-08-04T00:08:54.456Z,100208.50
2018-08-04T00:11:27.608Z,100207.59
2018-08-04T00:14:00.481Z,100207.86
2018-08-04T00:16:34.357Z,100200.89
2018-08-04T00:19:08.347Z,100198.88
2018-08-04T00:21:47.272Z,100202.15
2018-08-04T00:24:26.729Z,100206.96
2018-08-04T00:27:05.378Z,100208.72
2018-08-04T00:29:44.725Z,100211.52
2018-08-04T00:32:28.451Z,100211.71
2018-08-04T00:35:01.860Z,100204.16
2018-08-04T00:37:38.583Z,100204.69
2018-08-04T00:40:12.709Z,100203.09
2018-08-04T00:42:46.191Z,100199.58
2018-08-04T00:45:19.575Z,100203.61
2018-08-04T00:47:58.144Z,100199.61
2018-08-04T00:50:36.476Z,100203.01
2018-08-04T00:53:15.762Z,100212.62
2018-08-04T00:55:48.336Z,100205.92
2018-08-04T00:58:20.920Z,100204.85
2018-08-04T01:00:58.875Z,100202.18
2018-08-04T01:03:37.244Z,100207.41
2018-08-04T01:06:14.932Z,100211.56
2018-08-04T01:08:53.252Z,100221.20
2018-08-04T01:11:25.876Z,100220.30
2018-08-04T01:13:58.247Z,100219.35
2018-08-04T01:16:31.037Z,100218.62
2018-08-04T01:19:05.480Z,100214.93
2018-08-04T01:21:43.293Z,100213.69
2018-08-04T01:24:24.960Z,100219.44
2018-08-04T01:27:04.132Z,100220.06
2018-08-04T01:29:37.019Z,100221.75
2018-08-04T01:32:16.585Z,100221.22
2018-08-04T01:34:55.005Z,100224.95
2018-08-04T01:37:32.868Z,100222.44
2018-08-04T01:40:11.169Z,100219.11
2018-08-04T01:42:48.807Z,100221.44
2018-08-04T01:45:25.231Z,100223.63
2018-08-04T01:48:03.528Z,100220.61
2018-08-04T01:50:36.347Z,100226.48
2018-08-04T01:53:14.277Z,100225.40
2018-08-04T01:55:52.828Z,100219.75
2018-08-04T01:58:30.960Z,100227.48
2018-08-04T02:01:08.712Z,100224.55
2018-08-04T02:03:47.702Z,100220.84
2018-08-04T02:06:22.683Z,100218.17
2018-08-04T02:08:55.255Z,100214.89
2018-08-04T02:11:28.628Z,100213.81
2018-08-04T02:14:02.668Z,100214.62
2018-08-04T02:16:40.921Z,100225.44
2018-08-04T02:19:18.177Z,100215.89
2018-08-04T02:21:51.982Z,100211.64
2018-08-04T02:24:24.863Z,100207.98
2018-08-04T02:27:02.237Z,100209.56
2018-08-04T02:29:41.040Z,100209.25
2018-08-04T02:32:13.644Z,100208.22
2018-08-04T02:34:47.076Z,100209.94
2018-08-04T02:37:19.956Z,100211.77
2018-08-04T02:39:52.411Z,100206.59
2018-08-04T02:42:24.929Z,100205.27
2018-08-04T02:44:58.273Z,100210.81
2018-08-04T02:47:36.312Z,100204.16
2018-08-04T02:50:13.960Z,100198.62
2018-08-04T02:52:52.464Z,100196.32
2018-08-04T02:55:31.833Z,100191.94
2018-08-04T02:58:05.574Z,100186.72
2018-08-04T03:00:44.064Z,100186.59
2018-08-04T03:03:20.021Z,100185.75
2018-08-04T03:05:58.410Z,100188.03
2018-08-04T03:08:31.461Z,100191.48
2018-08-04T03:11:09.286Z,100185.83
2018-08-04T03:13:47.464Z,100184.28
2018-08-04T03:16:20.264Z,100180.18
2018-08-04T03:18:52.975Z,100176.16
2018-08-04T03:21:32.622Z,100177.73
2018-08-04T03:24:11.334Z,100183.30
2018-08-04T03:26:49.552Z,100190.72
2018-08-04T03:29:22.175Z,100186.34
2018-08-04T03:31:55.250Z,100185.97
2018-08-04T03:34:28.632Z,100185.89
2018-08-04T03:37:02.452Z,100185.44
2018-08-04T03:39:36.150Z,100188.59
2018-08-04T03:42:08.756Z,100183.58
2018-08-04T03:44:49.189Z,100187.25
2018-08-04T03:47:28.728Z,100186.39
2018-08-04T03:50:07.480Z,100190.34
2018-08-04T03:52:40.576Z,100196.09
2018-08-04T03:55:13.377Z,100196.98
2018-08-04T03:57:46.732Z,100200.80
2018-08-04T04:00:19.299Z,100198.06
2018-08-04T04:02:57.236Z,100203.55
2018-08-04T04:05:30.076Z,100200.61
2018-08-04T04:08:05.224Z,100204.75
2018-08-04T04:10:39.112Z,100207.97
2018-08-04T04:13:11.700Z,100205.40
2018-08-04T04:15:47.262Z,100201.70
2018-08-04T04:18:21.770Z,100196.70
2018-08-04T04:20:54.936Z,100199.45
2018-08-04T04:23:27.498Z,100202.44
2018-08-04T04:26:00.292Z,100204.47
2018-08-04T04:28:33.649Z,100203.98
2018-08-04T04:31:06.526Z,100208.17
2018-08-04T04:33:41.473Z,100208.22
2018-08-04T04:36:14.692Z,100205.52
2018-08-04T04:38:47.103Z,100211.81
2018-08-04T04:41:20.043Z,100208.77
2018-08-04T04:43:52.721Z,100208.83
2018-08-04T04:46:26.228Z,100209.31
2018-08-04T04:49:01.182Z,100203.87
2018-08-04T04:51:33.688Z,100210.95
2018-08-04T04:54:06.124Z,100212.09
2018-08-04T04:56:42.933Z,100208.97
2018-08-04T04:59:15.595Z,100212.75
2018-08-04T05:01:53.916Z,100208.55
2018-08-04T05:04:32.572Z,100206.67
2018-08-04T05:07:10.513Z,100207.27
2018-08-04T05:09:43.219Z,100214.75
2018-08-04T05:12:16.461Z,100211.44
2018-08-04T05:14:49.210Z,100209.10
2018-08-04T05:17:21.975Z,100220.46
2018-08-04T05:19:54.720Z,100220.86
2018-08-04T05:22:32.684Z,100219.63
2018-08-04T05:25:10.275Z,100212.30
2018-08-04T05:27:50.766Z,100216.78
2018-08-04T05:30:23.516Z,100222.64
2018-08-04T05:32:58.466Z,100215.35
2018-08-04T05:35:39.712Z,100216.05
2018-08-04T05:38:18.630Z,100221.59
2018-08-04T05:40:56.521Z,100229.77
2018-08-04T05:43:34.409Z,100228.94
2018-08-04T05:46:06.963Z,100228.34
2018-08-04T05:48:40.888Z,100234.22
2018-08-04T05:51:18.511Z,100237.83
2018-08-04T05:53:51.113Z,100239.58
2018-08-04T05:56:25.020Z,100236.91
2018-08-04T05:58:59.652Z,100237.38
2018-08-04T06:01:34.405Z,100239.70
2018-08-04T06:04:13.012Z,100245.66
2018-08-04T06:06:46.039Z,100245.91
2018-08-04T06:09:22.184Z,100244.55
2018-08-04T06:12:00.808Z,100245.34
2018-08-04T06:14:35.464Z,100249.39
2018-08-04T06:17:08.040Z,100247.47
2018-08-04T06:19:40.589Z,100248.52
2018-08-04T06:22:13.800Z,100247.55
2018-08-04T06:24:51.514Z,100247.16
2018-08-04T06:27:30.315Z,100248.75
2018-08-04T06:30:04.990Z,100259.69
2018-08-04T06:32:38.957Z,100262.84
2018-08-04T06:35:17.671Z,100260.52
2018-08-04T06:37:50.564Z,100262.80
2018-08-04T06:40:23.120Z,100263.19
2018-08-04T06:42:55.875Z,100271.13
2018-08-04T06:45:33.984Z,100275.38
2018-08-04T06:48:06.763Z,100276.59
2018-08-04T06:50:41.688Z,100274.06
2018-08-04T06:53:14.267Z,100272.95
2018-08-04T06:55:46.728Z,100270.30
2018-08-04T06:58:25.760Z,100271.14
2018-08-04T07:01:04.942Z,100269.88
2018-08-04T07:03:43.377Z,100271.02
2018-08-04T07:06:21.224Z,100270.34
2018-08-04T07:08:59.012Z,100275.80
2018-08-04T07:11:36.918Z,100278.91
2018-08-04T07:14:14.657Z,100279.62
2018-08-04T07:16:53.321Z,100281.08
2018-08-04T07:19:32.228Z,100279.23
2018-08-04T07:22:11.758Z,100280.07
2018-08-04T07:24:49.520Z,100281.84
2018-08-04T07:27:23.475Z,100285.08
2018-08-04T07:29:56.167Z,100278.09
2018-08-04T07:32:34.166Z,100282.20
2018-08-04T07:35:13.092Z,100282.69
2018-08-04T07:37:50.771Z,100288.90
2018-08-04T07:40:29.696Z,100287.52
2018-08-04T07:43:07.676Z,100282.20
2018-08-04T07:45:45.497Z,100278.67
2018-08-04T07:48:23.861Z,100279.36
2018-08-04T07:50:57.951Z,100275.29
2018-08-04T07:53:30.964Z,100281.00
2018-08-04T07:56:10.406Z,100288.39
2018-08-04T07:58:43.013Z,100290.69
2018-08-04T08:01:15.712Z,100293.04
2018-08-04T08:03:53.473Z,100289.30
2018-08-04T08:06:31.427Z,100292.46
2018-08-04T08:09:09.897Z,100294.89
2018-08-04T08:11:44.991Z,100297.27
2018-08-04T08:14:18.822Z,100290.58
2018-08-04T08:16:52.499Z,100294.22
2018-08-04T08:19:26.881Z,100300.03
2018-08-04T08:22:00.126Z,100298.31
2018-08-04T08:24:39.074Z,100299.37
2018-08-04T08:27:13.111Z,100299.04
2018-08-04T08:29:50.646Z,100297.64
2018-08-04T08:32:30.166Z,100297.47
2018-08-04T08:35:02.970Z,100304.63
2018-08-04T08:37:36.105Z,100305.25
2018-08-04T08:40:14.799Z,100309.15
2018-08-04T08:42:52.387Z,100305.58
2018-08-04T08:45:27.495Z,100299.02
2018-08-04T08:48:03.140Z,100297.87
2018-08-04T08:50:36.341Z,100298.48
2018-08-04T08:53:14.488Z,100299.83
2018-08-04T08:55:49.520Z,100299.08
2018-08-04T08:58:22.934Z,100296.95
2018-08-04T09:00:56.428Z,100301.44
2018-08-04T09:03:35.407Z,100295.06
2018-08-04T09:06:14.780Z,100296.26
2018-08-04T09:08:49.540Z,100292.51
2018-08-04T09:11:27.144Z,100301.37
2018-08-04T09:14:01.777Z,100298.93
2018-08-04T09:16:35.560Z,100300.55
2018-08-04T09:19:12.899Z,100305.36
2018-08-04T09:21:47.425Z,100301.74
2018-08-04T09:24:19.910Z,100301.73
2018-08-04T09:26:58.569Z,100299.30
2018-08-04T09:29:33.382Z,100300.73
2018-08-04T09:32:06.132Z,100301.32
2018-08-04T09:34:38.750Z,100305.63
2018-08-04T09:37:18.316Z,100314.06
2018-08-04T09:39:51.690Z,100305.08
2018-08-04T09:42:24.997Z,100301.09
2018-08-04T09:45:07.740Z,100304.98
2018-08-04T09:47:41.241Z,100302.94
2018-08-04T09:50:13.943Z,100301.00
2018-08-04T09:52:51.538Z,100297.69
2018-08-04T09:55:29.233Z,100299.43
2018-08-04T09:58:08.036Z,100301.19
2018-08-04T10:00:47.492Z,100305.95
2018-08-04T10:03:26.768Z,100310.09
2018-08-04T10:06:02.105Z,100306.08
2018-08-04T10:08:36.178Z,100310.09
2018-08-04T10:11:09.461Z,100317.04
2018-08-04T10:13:48.671Z,100318.70
2018-08-04T10:16:24.181Z,100320.03
2018-08-04T10:18:58.496Z,100319.81
2018-08-04T10:21:40.619Z,100320.49
2018-08-04T10:24:22.108Z,100323.25
2018-08-04T10:27:00.784Z,100322.17
2018-08-04T10:29:35.471Z,100315.95
2018-08-04T10:32:11.234Z,100323.58
2018-08-04T10:34:46.724Z,100319.89
2018-08-04T10:37:20.327Z,100311.48
2018-08-04T10:40:03.228Z,100323.75
2018-08-04T10:42:43.122Z,100311.01
2018-08-04T10:45:22.697Z,100317.50
2018-08-04T10:48:00.789Z,100323.90
2018-08-04T10:50:33.582Z,100319.40
2018-08-04T10:53:11.891Z,100319.47
2018-08-04T10:55:51.912Z,100324.73
2018-08-04T10:58:31.456Z,100323.88
2018-08-04T11:01:23.555Z,100320.34
2018-08-04T11:04:03.000Z,100324.23
2018-08-04T11:06:40.411Z,100328.63
2018-08-04T11:09:14.398Z,100320.95
2018-08-04T11:11:48.447Z,100317.75
2018-08-04T11:14:27.617Z,100317.32
2018-08-04T11:17:07.377Z,100313.05
2018-08-04T11:19:40.290Z,100308.64
2018-08-04T11:22:18.893Z,100313.05
2018-08-04T11:24:54.002Z,100312.79
2018-08-04T11:27:27.203Z,100301.43
2018-08-04T11:30:13.702Z,100303.97
2018-08-04T11:32:55.463Z,100301.17
2018-08-04T11:35:31.749Z,100290.45
2018-08-04T11:38:29.313Z,100285.70
2018-08-04T11:41:07.501Z,100278.83
2018-08-04T11:43:47.043Z,100282.81
2018-08-04T11:46:28.194Z,100274.59
2018-08-04T11:49:01.000Z,100274.31
2018-08-04T11:51:40.700Z,100276.53
2018-08-04T11:54:14.785Z,100274.45
2018-08-04T11:56:49.110Z,100285.14
2018-08-04T11:59:24.324Z,100279.12
2018-08-04T12:01:57.839Z,100284.89
2018-08-04T12:04:33.321Z,100273.55
2018-08-04T12:07:05.912Z,100270.13
2018-08-04T12:09:40.965Z,100266.88
2018-08-04T12:12:18.623Z,100271.92
2018-08-04T12:14:58.527Z,100276.34
2018-08-04T12:17:31.132Z,100262.16
2018-08-04T12:20:03.945Z,100261.48
2018-08-04T12:22:42.013Z,100269.74
2018-08-04T12:25:20.129Z,100268.98
2018-08-04T12:27:54.856Z,100267.08
2018-08-04T12:30:30.554Z,100264.73
2018-08-04T12:33:03.321Z,100262.14
2018-08-04T12:35:35.892Z,100263.80
2018-08-04T12:38:13.524Z,100258.57
2018-08-04T12:40:53.163Z,100249.53
2018-08-04T12:43:30.971Z,100248.16
2018-08-04T12:46:06.344Z,100243.63
2018-08-04T12:48:40.685Z,100253.97
2018-08-04T12:51:17.998Z,100237.52
2018-08-04T12:53:53.219Z,100235.27
2018-08-04T12:56:32.717Z,100237.08
2018-08-04T12:59:06.297Z,100238.39
2018-08-04T13:01:41.808Z,100231.22
2018-08-04T13:04:20.654Z,100230.72
2018-08-04T13:06:53.949Z,100233.27
2018-08-04T13:09:32.920Z,100229.78
2018-08-04T13:12:06.780Z,100228.39
2018-08-04T13:14:44.444Z,100228.15
2018-08-04T13:17:18.194Z,100228.25
2018-08-04T13:19:55.418Z,100218.89
2018-08-04T13:22:28.408Z,100230.16
2018-08-04T13:25:00.973Z,100228.55
2018-08-04T13:27:35.985Z,100222.84
2018-08-04T13:30:08.788Z,100224.14
2018-08-04T13:32:43.600Z,100225.36
2018-08-04T13:35:17.100Z,100228.22
2018-08-04T13:37:55.853Z,100227.84
2018-08-04T13:40:34.503Z,100233.12
2018-08-04T13:43:13.849Z,100231.22
2018-08-04T13:45:58.493Z,100228.77
2018-08-04T13:48:37.748Z,100220.80
2018-08-04T13:51:17.091Z,100219.13
2018-08-04T13:53:50.411Z,100221.47
2018-08-04T13:56:26.159Z,100214.80
2018-08-04T13:59:04.303Z,100218.81
2018-08-04T14:01:43.136Z,100220.70
2018-08-04T14:04:22.083Z,100219.81
2018-08-04T14:06:56.766Z,100210.41
2018-08-04T14:09:34.266Z,100211.82
2018-08-04T14:12:13.084Z,100212.81
2018-08-04T14:14:46.441Z,100206.31
2018-08-04T14:17:24.358Z,100208.50
2018-08-04T14:20:06.201Z,100203.48
2018-08-04T14:22:40.633Z,100212.19
2018-08-04T14:25:18.607Z,100214.33
2018-08-04T14:28:05.353Z,100208.20
2018-08-04T14:30:46.951Z,100205.00
2018-08-04T14:33:21.760Z,100208.02
2018-08-04T14:35:54.294Z,100199.09
2018-08-04T14:38:33.420Z,100195.36
2018-08-04T14:41:10.393Z,100198.02
2018-08-04T14:43:42.871Z,100200.28
2018-08-04T14:46:17.734Z,100201.36
2018-08-04T14:48:50.735Z,100194.30
2018-08-04T14:51:29.176Z,100191.67
2018-08-04T14:54:08.176Z,100193.56
2018-08-04T14:56:42.169Z,100192.14
2018-08-04T14:59:20.281Z,100193.17
2018-08-04T15:01:56.442Z,100193.66
2018-08-04T15:04:30.633Z,100186.81
2018-08-04T15:07:10.579Z,100187.48
2018-08-04T15:09:43.845Z,100184.56
2018-08-04T15:12:17.676Z,100182.09
2018-08-04T15:14:56.613Z,100177.63
2018-08-04T15:17:35.933Z,100182.45
2018-08-04T15:20:15.792Z,100187.38
2018-08-04T15:22:48.297Z,100184.38
2018-08-04T15:25:21.711Z,100184.22
2018-08-04T15:28:00.949Z,100189.03
2018-08-04T15:30:35.049Z,100191.64
2018-08-04T15:33:07.925Z,100194.46
2018-08-04T15:35:41.979Z,100189.02
2018-08-04T15:38:14.864Z,100184.70
2018-08-04T15:40:54.900Z,100182.34
2018-08-04T15:43:28.496Z,100181.45
2018-08-04T15:46:03.257Z,100182.33
2018-08-04T15:48:35.953Z,100187.52
2018-08-04T15:51:08.297Z,100185.41
2018-08-04T15:53:45.599Z,100179.00
2018-08-04T15:56:23.967Z,100184.03
2018-08-04T15:58:57.459Z,100185.48
2018-08-04T16:01:30.813Z,100182.11
2018-08-04T16:04:10.185Z,100180.53
2018-08-04T16:06:48.079Z,100178.66
2018-08-04T16:09:27.143Z,100177.92
2018-08-04T16:12:01.076Z,100184.13
2018-08-04T16:14:39.145Z,100185.47
2018-08-04T16:17:17.315Z,100183.92
2018-08-04T16:19:51.474Z,100189.70
2018-08-04T16:22:25.921Z,100193.16
2018-08-04T16:25:05.371Z,100192.41
2018-08-04T16:27:47.660Z,100191.80
2018-08-04T16:30:23.456Z,100199.17
2018-08-04T16:32:56.308Z,100196.83
2018-08-04T16:35:30.345Z,100196.44
2018-08-04T16:38:02.944Z,100201.61
2018-08-04T16:40:41.213Z,100202.02
2018-08-04T16:43:13.737Z,100202.58
2018-08-04T16:45:53.494Z,100201.47
2018-08-04T16:48:31.897Z,100201.55
2018-08-04T16:51:11.243Z,100208.28
2018-08-04T16:53:49.649Z,100211.09
2018-08-04T16:56:29.240Z,100206.47
2018-08-04T16:59:07.653Z,100205.53
2018-08-04T17:01:41.104Z,100202.12
2018-08-04T17:04:15.939Z,100202.53
2018-08-04T17:06:56.217Z,100201.77
2018-08-04T17:09:35.188Z,100206.23
2018-08-04T17:12:31.428Z,100204.14
2018-08-04T17:15:13.317Z,100207.69
2018-08-04T17:17:48.616Z,100209.12
2018-08-04T17:20:21.080Z,100217.47
2018-08-04T17:23:00.446Z,100215.02
2018-08-04T17:25:39.509Z,100213.98
2018-08-04T17:28:17.280Z,100219.44
2018-08-04T17:30:55.867Z,100225.08
2018-08-04T17:33:29.325Z,100223.19
2018-08-04T17:36:09.945Z,100221.02
2018-08-04T17:38:42.583Z,100226.27
2018-08-04T17:41:15.356Z,100225.00
2018-08-04T17:43:48.117Z,100224.18
2018-08-04T17:46:22.940Z,100223.23
2018-08-04T17:48:55.672Z,100231.48
2018-08-04T17:51:30.063Z,100228.97
2018-08-04T17:54:03.644Z,100236.94
2018-08-04T17:56:39.376Z,100237.44
2018-08-04T17:59:15.294Z,100238.08
2018-08-04T18:01:54.565Z,100241.31
2018-08-04T18:04:27.733Z,100243.31
2018-08-04T18:07:01.382Z,100244.31
2018-08-04T18:09:40.164Z,100245.88
2018-08-04T18:12:13.152Z,100251.02
2018-08-04T18:14:53.264Z,100251.20
2018-08-04T18:17:26.065Z,100258.02
2018-08-04T18:20:04.264Z,100269.42
2018-08-04T18:22:42.397Z,100263.84
2018-08-04T18:25:19.707Z,100262.02
2018-08-04T18:27:53.531Z,100261.00
2018-08-04T18:30:26.898Z,100267.13
2018-08-04T18:33:01.121Z,100270.74
2018-08-04T18:35:34.191Z,100275.07
2018-08-04T18:38:12.628Z,100289.47
2018-08-04T18:40:52.336Z,100287.80
2018-08-04T18:43:31.198Z,100291.09
2018-08-04T18:46:04.862Z,100294.06
2018-08-04T18:48:44.667Z,100292.05
2018-08-04T18:51:22.830Z,100297.17
2018-08-04T18:53:56.275Z,100302.03
2018-08-04T18:56:30.048Z,100307.77
2018-08-04T18:59:04.617Z,100312.25
2018-08-04T19:01:37.272Z,100312.57
2018-08-04T19:04:11.826Z,100316.64
2018-08-04T19:06:44.436Z,100321.20
2018-08-04T19:09:22.322Z,100317.45
2018-08-04T19:11:57.500Z,100317.48
2018-08-04T19:14:30.031Z,100319.73
2018-08-04T19:17:05.825Z,100323.75
2018-08-04T19:19:41.376Z,100327.09
2018-08-04T19:22:21.402Z,100332.20
2018-08-04T19:24:58.635Z,100339.38
2018-08-04T19:27:33.861Z,100338.60
2018-08-04T19:30:14.572Z,100340.41
2018-08-04T19:32:47.272Z,100340.36
2018-08-04T19:35:22.340Z,100342.63
2018-08-04T19:37:56.724Z,100351.92
2018-08-04T19:40:31.718Z,100359.33
2018-08-04T19:43:12.603Z,100361.11
2018-08-04T19:45:56.975Z,100370.58
2018-08-04T19:48:35.969Z,100371.78
2018-08-04T19:51:21.891Z,100374.09
2018-08-04T19:53:59.970Z,100386.16
2018-08-04T19:56:32.952Z,100384.44
2018-08-04T19:59:12.957Z,100386.32
2018-08-04T20:01:52.833Z,100393.97
2018-08-04T20:04:27.518Z,100389.63
2018-08-04T20:07:02.224Z,100397.09
2018-08-04T20:09:40.429Z,100391.67
2018-08-04T20:12:13.930Z,100399.66
2018-08-04T20:14:47.040Z,100401.48
2018-08-04T20:17:24.309Z,100398.23
2018-08-04T20:20:04.771Z,100400.89
2018-08-04T20:22:50.421Z,100407.39
2018-08-04T20:25:24.783Z,100399.94
2018-08-04T20:27:58.167Z,100400.69
2018-08-04T20:30:38.910Z,100400.70
2018-08-04T20:33:15.308Z,100407.06
2018-08-04T20:35:51.312Z,100410.56
2018-08-04T20:38:31.337Z,100408.64
2018-08-04T20:41:09.924Z,100420.77
2018-08-04T20:43:50.269Z,100423.77
2018-08-04T20:46:25.785Z,100419.13
2018-08-04T20:49:01.523Z,100417.53
2018-08-04T20:51:34.669Z,100419.67
2018-08-04T20:54:08.908Z,100420.45
2018-08-04T20:56:49.464Z,100415.73
2018-08-04T20:59:22.131Z,100422.80
2018-08-04T21:02:03.914Z,100425.34
2018-08-04T21:04:41.352Z,100428.27
2018-08-04T21:07:20.314Z,100428.08
2018-08-04T21:09:54.296Z,100429.39
2018-08-04T21:12:31.825Z,100429.87
2018-08-04T21:15:10.812Z,100429.69
2018-08-04T21:17:44.865Z,100430.43
2018-08-04T21:20:17.508Z,100430.72
2018-08-04T21:22:50.321Z,100431.91
2018-08-04T21:25:27.777Z,100436.52
2018-08-04T21:28:03.656Z,100437.10
2018-08-04T21:30:36.829Z,100438.34
2018-08-04T21:33:09.226Z,100438.95
2018-08-04T21:35:43.704Z,100440.27
2018-08-04T21:38:16.682Z,100441.50
2018-08-04T21:40:51.804Z,100444.11
2018-08-04T21:43:25.839Z,100442.77
2018-08-04T21:45:58.170Z,100446.24
2018-08-04T21:48:30.829Z,100443.06
2018-08-04T21:51:05.057Z,100454.56
2018-08-04T21:53:37.665Z,100454.26
2018-08-04T21:56:11.119Z,100448.83
2018-08-04T21:58:51.315Z,100454.64
2018-08-04T22:01:25.551Z,100451.05
2018-08-04T22:04:00.430Z,100450.52
2018-08-04T22:07:13.246Z,100456.81
2018-08-04T22:09:54.180Z,100449.61
2018-08-04T22:12:32.468Z,100449.59
2018-08-04T22:15:12.614Z,100456.21
2018-08-04T22:17:46.637Z,100453.48
2018-08-04T22:20:22.808Z,100453.94
2018-08-04T22:23:00.680Z,100456.09
2018-08-04T22:25:38.316Z,100455.85
2018-08-04T22:28:19.049Z,100456.53
2018-08-04T22:30:52.488Z,100464.23
2018-08-04T22:33:30.300Z,100461.02
2018-08-04T22:36:08.189Z,100459.83
2018-08-04T22:38:45.996Z,100455.28
2018-08-04T22:41:23.605Z,100463.94
2018-08-04T22:43:56.410Z,100468.94
2018-08-04T22:46:28.956Z,100469.23
2018-08-04T22:49:06.500Z,100468.98
2018-08-04T22:51:46.839Z,100468.08
2018-08-04T22:54:20.707Z,100463.98
2018-08-04T22:56:53.256Z,100464.00
2018-08-04T22:59:27.112Z,100464.66
2018-08-04T23:02:00.190Z,100461.89
2018-08-04T23:04:34.579Z,100465.53
2018-08-04T23:07:09.096Z,100471.62
2018-08-04T23:09:48.059Z,100470.64
2018-08-04T23:12:21.518Z,100468.95
2018-08-04T23:14:55.217Z,100470.50
2018-08-04T23:17:27.825Z,100477.09
2018-08-04T23:20:01.269Z,100479.93
2018-08-04T23:22:39.013Z,100487.13
2018-08-04T23:25:16.800Z,100484.75
2018-08-04T23:27:51.308Z,100488.17
2018-08-04T23:30:24.455Z,100486.72
2018-08-04T23:33:03.463Z,100487.73
2018-08-04T23:35:36.047Z,100490.34
2018-08-04T23:38:13.844Z,100490.59
2018-08-04T23:40:51.276Z,100496.02
2018-08-04T23:43:23.731Z,100495.84
2018-08-04T23:45:57.213Z,100501.56
2018-08-04T23:48:29.808Z,100503.65
2018-08-04T23:51:03.393Z,100503.82
2018-08-04T23:53:41.161Z,100508.37
2018-08-04T23:56:15.412Z,100508.62
2018-08-04T23:58:53.424Z,100507.16
